Time;durP1;ratioP1;P1;durP2;ratioP2;P2;SDS_P1;SDS_P2;PMS_P1;PMS_P2;Temp;Humidity;BMP_temperature;BMP_pressure;BME280_temperature;BME280_humidity;BME280_pressure;Samples;Min_cycle;Max_cycle;Signal;HPM_P1;HPM_P2
2023/04/19 00:02:01;;;;;;;8.38;5.65;;;8.20;99.90;;;;;;5074054;28;20056;-61
2023/04/19 00:04:28;;;;;;;8.85;5.93;;;8.30;99.90;;;;;;5073946;28;20414;-62
2023/04/19 00:06:57;;;;;;;10.85;5.82;;;8.20;99.90;;;;;;5090170;28;20040;-62
2023/04/19 00:09:24;;;;;;;10.77;5.53;;;8.20;99.90;;;;;;5091684;28;20126;-61
2023/04/19 00:11:51;;;;;;;9.60;5.75;;;8.20;99.90;;;;;;5074174;28;20479;-62
2023/04/19 00:14:18;;;;;;;10.07;5.45;;;8.20;99.90;;;;;;5092291;28;20113;-61
2023/04/19 00:16:45;;;;;;;10.43;5.90;;;8.20;99.90;;;;;;5073701;28;20055;-62
2023/04/19 00:19:12;;;;;;;11.38;6.07;;;8.30;99.90;;;;;;5073962;28;20044;-61
2023/04/19 00:21:39;;;;;;;10.82;6.10;;;8.10;99.90;;;;;;5091985;28;20055;-61
2023/04/19 00:24:07;;;;;;;19.35;6.75;;;8.10;99.90;;;;;;5090987;28;20044;-61
2023/04/19 00:26:34;;;;;;;8.35;5.93;;;8.10;99.90;;;;;;5092151;28;20051;-60
2023/04/19 00:29:01;;;;;;;9.68;5.38;;;8.10;99.90;;;;;;5090062;28;20082;-61
2023/04/19 00:31:28;;;;;;;10.20;6.38;;;8.10;99.90;;;;;;5073458;28;20056;-61
2023/04/19 00:33:55;;;;;;;12.13;6.65;;;8.10;99.90;;;;;;5073961;28;20101;-61
2023/04/19 00:36:22;;;;;;;8.25;6.32;;;8.10;99.90;;;;;;5091809;28;20044;-61
2023/04/19 00:38:49;;;;;;;11.15;6.57;;;8.00;99.90;;;;;;5091412;28;20495;-61
2023/04/19 00:41:17;;;;;;;9.30;6.50;;;8.00;99.90;;;;;;5091625;28;20051;-61
2023/04/19 00:43:44;;;;;;;9.77;6.53;;;8.00;99.90;;;;;;5073855;28;20052;-61
2023/04/19 00:46:11;;;;;;;11.80;6.88;;;8.00;99.90;;;;;;5091324;28;20101;-60
2023/04/19 00:48:38;;;;;;;14.98;7.07;;;7.90;99.90;;;;;;5074122;28;20101;-61
2023/04/19 00:51:05;;;;;;;10.50;6.55;;;7.90;99.90;;;;;;5091505;28;20052;-61
2023/04/19 00:53:32;;;;;;;9.07;6.80;;;7.90;99.90;;;;;;5091537;28;20392;-61
2023/04/19 00:56:02;;;;;;;12.38;6.85;;;7.90;99.90;;;;;;5091944;28;20109;-61
2023/04/19 00:58:31;;;;;;;11.60;7.47;;;7.90;99.90;;;;;;5091976;28;20058;-62
2023/04/19 01:00:58;;;;;;;11.75;6.93;;;7.90;99.90;;;;;;5089372;28;20484;-61
2023/04/19 01:03:26;;;;;;;11.45;7.47;;;7.90;99.90;;;;;;5073417;28;20141;-61
2023/04/19 01:05:53;;;;;;;9.32;6.72;;;7.90;99.90;;;;;;5073321;28;20048;-61
2023/04/19 01:08:20;;;;;;;10.85;7.10;;;7.80;99.90;;;;;;5091435;28;20056;-61
2023/04/19 01:10:46;;;;;;;16.02;7.95;;;7.80;99.90;;;;;;5091616;28;20041;-62
2023/04/19 01:13:13;;;;;;;12.55;7.60;;;7.80;99.90;;;;;;5072591;28;20492;-62
2023/04/19 01:15:41;;;;;;;10.85;7.20;;;7.70;99.90;;;;;;5073871;28;20117;-61
2023/04/19 01:18:09;;;;;;;11.43;7.63;;;7.70;99.90;;;;;;5091311;28;20043;-61
2023/04/19 01:20:36;;;;;;;13.15;7.55;;;7.60;99.90;;;;;;5091125;28;20434;-63
2023/04/19 01:23:04;;;;;;;11.18;7.45;;;7.60;99.90;;;;;;5091490;28;20120;-62
2023/04/19 01:25:31;;;;;;;14.13;7.65;;;7.50;99.90;;;;;;5073452;28;20060;-61
2023/04/19 01:27:58;;;;;;;12.00;7.78;;;7.50;99.90;;;;;;5090934;28;20052;-61
2023/04/19 01:30:25;;;;;;;12.18;8.32;;;7.40;99.90;;;;;;5091460;28;20048;-62
2023/04/19 01:32:51;;;;;;;13.02;8.40;;;7.40;99.90;;;;;;5073371;28;20063;-62
2023/04/19 01:35:20;;;;;;;13.40;8.65;;;7.40;99.90;;;;;;5074684;28;20101;-61
2023/04/19 01:37:47;;;;;;;13.85;7.82;;;7.30;99.90;;;;;;5095002;28;20080;-62
2023/04/19 01:40:16;;;;;;;12.45;9.00;;;7.30;99.90;;;;;;5076854;28;20048;-62
2023/04/19 01:42:43;;;;;;;13.85;8.85;;;7.20;99.90;;;;;;5076368;28;20048;-63
2023/04/19 01:45:10;;;;;;;14.18;8.80;;;7.10;99.90;;;;;;5095006;28;20047;-62
2023/04/19 01:47:37;;;;;;;14.60;8.77;;;7.10;99.90;;;;;;5076738;28;20044;-61
2023/04/19 01:50:04;;;;;;;10.60;8.02;;;7.10;99.90;;;;;;5076388;28;20491;-61
2023/04/19 01:52:31;;;;;;;11.80;8.38;;;7.00;99.90;;;;;;5094667;28;20055;-61
2023/04/19 01:54:58;;;;;;;13.95;9.20;;;7.00;99.90;;;;;;5094254;28;20077;-61
2023/04/19 01:57:26;;;;;;;14.60;7.85;;;6.90;99.90;;;;;;5094516;28;20052;-61
2023/04/19 01:59:53;;;;;;;13.00;8.13;;;6.90;99.90;;;;;;5076698;28;20044;-61
2023/04/19 02:02:20;;;;;;;13.73;8.65;;;6.90;99.90;;;;;;5093516;28;20048;-62
2023/04/19 02:04:47;;;;;;;14.18;8.05;;;6.90;99.90;;;;;;5094789;28;20050;-61
2023/04/19 02:07:14;;;;;;;10.95;8.07;;;7.00;99.90;;;;;;5094488;28;20101;-60
2023/04/19 02:09:41;;;;;;;11.32;7.93;;;7.10;99.90;;;;;;5093932;28;20063;-61
2023/04/19 02:12:09;;;;;;;15.15;8.18;;;7.10;99.90;;;;;;5094245;28;20044;-60
2023/04/19 02:14:37;;;;;;;10.77;7.05;;;7.10;99.90;;;;;;5094313;28;20048;-61
2023/04/19 02:17:04;;;;;;;12.15;7.47;;;7.10;99.90;;;;;;5093655;28;20542;-61
2023/04/19 02:19:31;;;;;;;11.75;7.55;;;7.10;99.90;;;;;;5094242;28;20048;-62
2023/04/19 02:21:58;;;;;;;9.98;7.15;;;7.10;99.90;;;;;;5076336;28;20060;-62
2023/04/19 02:24:25;;;;;;;10.02;6.90;;;7.10;99.90;;;;;;5075629;28;20199;-62
2023/04/19 02:26:51;;;;;;;9.48;6.22;;;7.00;99.90;;;;;;5094054;28;20090;-62
2023/04/19 02:29:18;;;;;;;9.32;6.97;;;7.00;99.90;;;;;;5094129;28;20105;-60
2023/04/19 02:31:47;;;;;;;11.52;7.03;;;7.00;99.90;;;;;;5075449;28;20133;-63
2023/04/19 02:34:14;;;;;;;11.30;6.40;;;7.00;99.90;;;;;;5076047;28;20044;-61
2023/04/19 02:36:40;;;;;;;9.90;6.30;;;6.90;99.90;;;;;;5094048;28;20459;-62
2023/04/19 02:39:07;;;;;;;9.57;5.45;;;7.00;99.90;;;;;;5091132;28;20055;-61
2023/04/19 02:41:34;;;;;;;8.10;5.88;;;7.00;99.90;;;;;;5093478;28;20055;-61
2023/04/19 02:44:01;;;;;;;7.20;5.45;;;6.90;99.90;;;;;;5094008;28;20098;-61
2023/04/19 02:46:28;;;;;;;8.32;5.85;;;6.90;99.90;;;;;;5075236;28;20060;-62
2023/04/19 02:48:56;;;;;;;8.68;5.88;;;6.90;99.90;;;;;;5075736;28;20399;-62
2023/04/19 02:51:23;;;;;;;10.20;6.22;;;6.80;99.90;;;;;;5075184;28;20055;-62
2023/04/19 02:53:50;;;;;;;10.65;6.22;;;6.80;99.90;;;;;;5093532;28;20044;-61
2023/04/19 02:56:17;;;;;;;8.88;5.65;;;6.70;99.90;;;;;;5093489;28;20056;-62
2023/04/19 02:58:44;;;;;;;8.77;5.32;;;6.70;99.90;;;;;;5074914;28;20056;-62
2023/04/19 03:01:10;;;;;;;11.10;6.30;;;6.60;99.90;;;;;;5075137;28;20116;-61
2023/04/19 03:03:37;;;;;;;10.00;6.03;;;6.60;99.90;;;;;;5093251;28;20056;-60
2023/04/19 03:06:06;;;;;;;11.52;5.90;;;6.60;99.90;;;;;;5074860;28;20479;-61
2023/04/19 03:08:33;;;;;;;9.35;5.97;;;6.60;99.90;;;;;;5093106;28;20044;-62
2023/04/19 03:11:00;;;;;;;9.73;5.80;;;6.60;99.90;;;;;;5093305;28;20109;-61
2023/04/19 03:13:27;;;;;;;7.57;5.22;;;6.60;99.90;;;;;;5092537;28;20048;-61
2023/04/19 03:15:53;;;;;;;11.15;6.20;;;6.50;99.90;;;;;;5075357;28;20113;-61
2023/04/19 03:18:21;;;;;;;7.97;5.57;;;6.50;99.90;;;;;;5093019;28;20048;-61
2023/04/19 03:20:48;;;;;;;8.38;5.40;;;6.50;99.90;;;;;;5092463;28;20040;-62
2023/04/19 03:23:16;;;;;;;10.05;6.25;;;6.50;99.90;;;;;;5074818;28;20100;-61
2023/04/19 03:25:43;;;;;;;7.88;5.50;;;6.40;99.90;;;;;;5075235;28;20048;-60
2023/04/19 03:28:10;;;;;;;8.85;5.50;;;6.40;99.90;;;;;;5092300;28;20407;-60
2023/04/19 03:30:36;;;;;;;9.88;5.53;;;6.40;99.90;;;;;;5092844;28;20461;-61
2023/04/19 03:33:03;;;;;;;7.53;5.40;;;6.40;99.90;;;;;;5092759;28;20557;-61
2023/04/19 03:35:31;;;;;;;7.82;5.50;;;6.40;99.90;;;;;;5074239;28;20051;-60
2023/04/19 03:37:58;;;;;;;7.28;4.88;;;6.40;99.90;;;;;;5092886;28;20044;-61
2023/04/19 03:40:26;;;;;;;7.18;4.80;;;6.30;99.90;;;;;;5073712;28;20093;-61
2023/04/19 03:42:53;;;;;;;9.15;5.20;;;6.30;99.90;;;;;;5085200;28;20101;-61
2023/04/19 03:45:21;;;;;;;8.65;5.63;;;6.40;99.90;;;;;;5089801;28;20048;-62
2023/04/19 03:47:48;;;;;;;9.40;5.30;;;6.40;99.90;;;;;;5070956;28;20056;-62
2023/04/19 03:50:15;;;;;;;7.43;5.28;;;6.30;99.90;;;;;;5091357;28;20051;-63
2023/04/19 03:52:41;;;;;;;7.45;4.88;;;6.30;99.90;;;;;;5088023;28;20105;-61
2023/04/19 03:55:11;;;;;;;9.77;5.18;;;6.20;99.90;;;;;;5088735;28;20129;-62
2023/04/19 03:57:39;;;;;;;7.00;5.22;;;6.20;99.90;;;;;;5069588;28;20056;-60
2023/04/19 04:00:07;;;;;;;8.98;5.13;;;6.20;99.90;;;;;;5070083;28;20065;-61
2023/04/19 04:02:36;;;;;;;9.77;5.20;;;6.20;99.90;;;;;;5070330;28;20155;-61
2023/04/19 04:05:04;;;;;;;8.02;5.05;;;6.20;99.90;;;;;;5070613;28;20522;-61
2023/04/19 04:07:30;;;;;;;7.50;4.90;;;6.20;99.90;;;;;;5089546;28;20052;-62
2023/04/19 04:09:57;;;;;;;7.13;5.07;;;6.20;99.90;;;;;;5089080;28;20048;-62
2023/04/19 04:12:24;;;;;;;6.93;4.55;;;6.20;99.90;;;;;;5070937;28;20064;-60
2023/04/19 04:14:53;;;;;;;7.90;5.05;;;6.10;99.90;;;;;;5087357;28;20094;-61
2023/04/19 04:17:20;;;;;;;6.70;4.03;;;6.10;99.90;;;;;;5070377;28;20055;-61
2023/04/19 04:19:46;;;;;;;7.03;4.55;;;6.00;99.90;;;;;;5069914;28;20047;-62
2023/04/19 04:22:14;;;;;;;7.25;4.55;;;6.00;99.90;;;;;;5089758;28;20059;-61
2023/04/19 04:24:41;;;;;;;6.80;4.88;;;5.90;99.90;;;;;;5066627;28;20052;-61
2023/04/19 04:27:09;;;;;;;8.05;5.18;;;5.80;99.90;;;;;;5091477;28;20086;-62
2023/04/19 04:29:36;;;;;;;11.35;5.47;;;5.70;99.90;;;;;;5085901;28;20123;-61
2023/04/19 04:32:07;;;;;;;8.63;5.63;;;5.70;99.90;;;;;;5089444;28;20488;-62
2023/04/19 04:34:34;;;;;;;7.95;5.00;;;5.60;99.90;;;;;;5088879;28;20125;-62
2023/04/19 04:37:01;;;;;;;10.13;5.70;;;5.50;99.90;;;;;;5085219;28;20087;-62
2023/04/19 04:39:29;;;;;;;11.90;5.00;;;5.50;99.90;;;;;;5089497;28;20056;-62
2023/04/19 04:41:56;;;;;;;8.32;5.38;;;5.40;99.90;;;;;;5070208;28;20044;-63
2023/04/19 04:44:23;;;;;;;9.07;5.22;;;5.40;99.90;;;;;;5088603;28;20052;-61
2023/04/19 04:46:50;;;;;;;11.90;5.28;;;5.40;99.90;;;;;;5070000;28;20071;-61
2023/04/19 04:49:18;;;;;;;7.30;4.78;;;5.40;99.90;;;;;;5073576;28;20048;-60
2023/04/19 04:51:45;;;;;;;7.63;5.15;;;5.50;99.90;;;;;;5087474;28;20740;-61
2023/04/19 04:54:12;;;;;;;9.00;4.80;;;5.50;99.90;;;;;;5071752;28;20629;-61
2023/04/19 04:56:39;;;;;;;9.45;5.30;;;5.50;99.90;;;;;;5092126;28;20051;-61
2023/04/19 04:59:06;;;;;;;7.30;4.40;;;5.60;99.90;;;;;;5073009;28;20048;-62
2023/04/19 05:01:33;;;;;;;8.98;4.68;;;5.70;99.90;;;;;;5071617;28;20051;-61
2023/04/19 05:04:00;;;;;;;7.95;4.85;;;5.70;99.90;;;;;;5091529;28;20071;-62
2023/04/19 05:06:28;;;;;;;6.90;4.32;;;5.80;99.90;;;;;;5073222;28;20058;-61
2023/04/19 05:08:55;;;;;;;6.95;4.20;;;5.80;99.90;;;;;;5092104;28;20097;-62
2023/04/19 05:11:22;;;;;;;7.22;4.97;;;5.80;99.90;;;;;;5095585;28;20052;-63
2023/04/19 05:13:49;;;;;;;6.13;3.80;;;5.90;99.90;;;;;;5095029;28;21318;-61
2023/04/19 05:16:16;;;;;;;8.15;4.03;;;5.90;99.90;;;;;;5077687;28;20125;-60
2023/04/19 05:18:43;;;;;;;7.28;3.70;;;5.90;99.90;;;;;;5095528;28;20113;-61
2023/04/19 05:21:10;;;;;;;5.30;3.90;;;6.00;99.90;;;;;;5094769;28;20050;-61
2023/04/19 05:23:38;;;;;;;8.75;4.07;;;6.00;99.90;;;;;;5095020;28;20048;-61
2023/04/19 05:26:05;;;;;;;6.60;4.07;;;6.20;99.90;;;;;;5094588;28;20044;-61
2023/04/19 05:28:32;;;;;;;6.82;3.60;;;6.20;99.90;;;;;;5077380;28;20052;-61
2023/04/19 05:30:59;;;;;;;6.85;3.55;;;6.30;99.90;;;;;;5077276;28;20044;-61
2023/04/19 05:33:26;;;;;;;10.18;4.10;;;6.40;99.90;;;;;;5094638;28;20518;-63
2023/04/19 05:35:53;;;;;;;8.15;3.67;;;6.50;99.90;;;;;;5094950;28;20544;-61
2023/04/19 05:38:20;;;;;;;6.40;3.47;;;6.50;99.90;;;;;;5095112;28;20052;-60
2023/04/19 05:40:48;;;;;;;7.82;3.90;;;6.60;99.90;;;;;;5094238;28;20499;-61
2023/04/19 05:43:15;;;;;;;8.35;4.25;;;6.70;99.90;;;;;;5075202;28;20094;-61
2023/04/19 05:45:41;;;;;;;6.82;3.40;;;6.70;99.90;;;;;;5076772;28;20101;-61
2023/04/19 05:48:08;;;;;;;6.30;3.70;;;6.70;99.90;;;;;;5094298;28;20495;-61
2023/04/19 05:50:36;;;;;;;7.28;3.50;;;6.80;99.90;;;;;;5094682;28;20048;-60
2023/04/19 05:53:03;;;;;;;6.22;3.40;;;6.80;99.90;;;;;;5094859;28;20048;-62
2023/04/19 05:55:30;;;;;;;6.55;3.65;;;6.90;99.90;;;;;;5093819;28;20048;-61
2023/04/19 05:57:58;;;;;;;5.53;3.45;;;7.00;99.90;;;;;;5076629;28;20048;-62
2023/04/19 06:00:26;;;;;;;6.85;3.78;;;7.10;99.90;;;;;;5092574;28;20101;-63
2023/04/19 06:02:53;;;;;;;7.05;4.13;;;7.20;99.90;;;;;;5075705;28;20043;-62
2023/04/19 06:05:20;;;;;;;5.88;3.72;;;7.40;99.90;;;;;;5076375;28;20052;-61
2023/04/19 06:07:47;;;;;;;7.18;3.08;;;7.50;99.90;;;;;;5076642;28;20085;-62
2023/04/19 06:10:15;;;;;;;7.20;3.60;;;7.60;99.90;;;;;;5094094;28;20089;-62
2023/04/19 06:12:41;;;;;;;5.88;3.25;;;7.90;99.90;;;;;;5076533;28;20511;-62
2023/04/19 06:15:11;;;;;;;6.55;3.15;;;8.10;99.90;;;;;;5093915;28;20048;-61
2023/04/19 06:17:38;;;;;;;5.65;2.92;;;8.50;99.90;;;;;;5076237;28;20048;-62
2023/04/19 06:20:07;;;;;;;6.68;3.03;;;8.80;99.90;;;;;;5093789;28;20051;-62
2023/04/19 06:22:34;;;;;;;4.13;2.50;;;9.10;99.90;;;;;;5091516;28;20048;-61
2023/04/19 06:25:02;;;;;;;5.93;2.75;;;9.60;99.90;;;;;;5094095;28;20044;-62
2023/04/19 06:27:29;;;;;;;5.00;2.47;;;10.00;99.90;;;;;;5076455;28;20052;-62
2023/04/19 06:29:56;;;;;;;6.65;2.63;;;10.50;99.90;;;;;;5093396;28;20048;-61
2023/04/19 06:32:24;;;;;;;8.93;2.83;;;11.10;99.90;;;;;;5094075;28;20039;-60
2023/04/19 06:34:51;;;;;;;7.45;3.28;;;11.40;99.20;;;;;;5075887;28;20098;-61
2023/04/19 06:37:18;;;;;;;10.10;3.10;;;11.90;98.60;;;;;;5075185;28;20109;-61
2023/04/19 06:39:45;;;;;;;5.07;2.85;;;12.10;96.40;;;;;;5076106;28;20158;-62
2023/04/19 06:42:12;;;;;;;4.53;2.75;;;12.20;95.90;;;;;;5075681;28;20450;-62
2023/04/19 06:44:39;;;;;;;5.13;3.00;;;12.70;96.00;;;;;;5075122;28;20044;-61
2023/04/19 06:47:06;;;;;;;5.80;2.85;;;12.90;95.10;;;;;;5075785;28;20052;-61
2023/04/19 06:49:34;;;;;;;6.60;2.92;;;13.10;95.00;;;;;;5093692;28;20056;-62
2023/04/19 06:52:01;;;;;;;6.97;2.88;;;13.70;94.70;;;;;;5093030;28;20094;-63
2023/04/19 06:54:28;;;;;;;6.20;2.58;;;14.00;94.00;;;;;;5093723;28;20048;-62
2023/04/19 06:56:56;;;;;;;4.60;2.15;;;14.00;92.90;;;;;;5093684;28;20093;-62
2023/04/19 06:59:27;;;;;;;3.75;2.05;;;14.10;92.20;;;;;;5092951;28;20056;-63
2023/04/19 07:01:55;;;;;;;;;;;14.00;90.90;;;;;;5093677;28;20131;-61
2023/04/19 07:04:22;;;;;;;7.25;2.83;;;14.00;90.40;;;;;;5093069;28;20441;-62
2023/04/19 07:06:50;;;;;;;3.70;2.40;;;14.40;90.00;;;;;;5075409;28;20048;-62
2023/04/19 07:09:17;;;;;;;7.35;2.55;;;14.60;89.50;;;;;;5093625;28;20044;-61
2023/04/19 07:11:46;;;;;;;3.72;2.00;;;14.90;89.20;;;;;;5074616;28;20044;-61
2023/04/19 07:14:13;;;;;;;4.50;2.70;;;14.50;87.90;;;;;;5093018;28;20590;-62
2023/04/19 07:16:40;;;;;;;3.55;2.10;;;14.60;87.40;;;;;;5075058;28;20500;-61
2023/04/19 07:19:07;;;;;;;4.00;1.75;;;14.80;87.40;;;;;;5074574;28;20056;-63
2023/04/19 07:21:33;;;;;;;4.15;2.35;;;14.80;86.10;;;;;;5091098;28;20044;-62
2023/04/19 07:24:02;;;;;;;6.07;2.08;;;14.70;86.90;;;;;;5092907;28;20492;-62
2023/04/19 07:26:28;;;;;;;3.80;2.10;;;15.30;84.30;;;;;;5074661;28;20454;-62
2023/04/19 07:28:55;;;;;;;4.30;2.00;;;15.60;84.00;;;;;;5075198;28;20048;-62
2023/04/19 07:31:23;;;;;;;3.97;1.90;;;16.20;83.20;;;;;;5093036;28;20047;-62
2023/04/19 07:33:50;;;;;;;4.78;1.88;;;15.60;82.00;;;;;;5091638;28;20131;-62
2023/04/19 07:36:17;;;;;;;5.25;1.88;;;15.40;82.90;;;;;;5075026;28;20052;-62
2023/04/19 07:38:44;;;;;;;5.68;1.70;;;16.10;82.90;;;;;;5075122;28;20089;-62
2023/04/19 07:41:12;;;;;;;4.53;1.75;;;16.00;81.70;;;;;;5092080;28;20458;-62
2023/04/19 07:43:40;;;;;;;4.20;1.73;;;15.80;80.00;;;;;;5092904;28;20052;-62
2023/04/19 07:46:09;;;;;;;4.50;1.60;;;16.40;81.50;;;;;;5074750;28;20082;-61
2023/04/19 07:48:36;;;;;;;3.72;1.90;;;16.30;79.20;;;;;;5092170;28;20059;-62
2023/04/19 07:51:09;;;;;;;4.28;1.90;;;16.30;79.70;;;;;;5092687;28;20082;-63
2023/04/19 07:53:36;;;;;;;4.15;1.60;;;16.80;80.30;;;;;;5072523;28;20090;-62
2023/04/19 07:56:03;;;;;;;2.88;1.83;;;16.70;77.80;;;;;;5074480;28;20093;-61
2023/04/19 07:58:31;;;;;;;3.80;1.67;;;16.80;78.40;;;;;;5093004;28;20444;-61
2023/04/19 08:00:58;;;;;;;4.05;1.52;;;17.00;77.60;;;;;;5073766;28;20048;-61
2023/04/19 08:03:25;;;;;;;4.72;1.70;;;16.60;75.20;;;;;;5074217;28;20044;-62
2023/04/19 08:05:52;;;;;;;3.33;1.60;;;16.30;76.30;;;;;;5092213;28;20048;-62
2023/04/19 08:08:19;;;;;;;3.35;1.60;;;16.80;76.70;;;;;;5091836;28;20491;-62
2023/04/19 08:10:46;;;;;;;3.00;1.67;;;16.60;76.40;;;;;;5092358;28;20052;-61
2023/04/19 08:13:13;;;;;;;6.40;1.50;;;16.50;75.90;;;;;;5074249;28;20048;-61
2023/04/19 08:15:41;;;;;;;5.78;1.90;;;16.70;76.30;;;;;;5091558;28;20090;-62
2023/04/19 08:18:08;;;;;;;2.72;1.70;;;17.10;75.20;;;;;;5074285;28;20052;-62
2023/04/19 08:20:35;;;;;;;7.00;1.58;;;17.60;74.40;;;;;;5092382;28;20070;-62
2023/04/19 08:23:04;;;;;;;2.78;1.50;;;17.70;73.80;;;;;;5073504;28;20048;-61
2023/04/19 08:25:31;;;;;;;3.17;1.50;;;17.40;74.80;;;;;;5073987;28;20085;-62
2023/04/19 08:27:58;;;;;;;3.35;1.17;;;17.80;73.70;;;;;;5074396;28;20051;-61
2023/04/19 08:30:25;;;;;;;3.30;1.10;;;16.90;72.50;;;;;;5073695;28;20519;-62
2023/04/19 08:32:53;;;;;;;4.03;1.67;;;17.20;73.40;;;;;;5092105;28;20496;-63
2023/04/19 08:35:21;;;;;;;2.95;1.52;;;17.40;73.70;;;;;;5092045;28;20450;-62
2023/04/19 08:37:48;;;;;;;13.20;1.75;;;17.50;71.40;;;;;;5091423;28;20521;-61
2023/04/19 08:40:15;;;;;;;5.20;1.60;;;17.90;73.70;;;;;;5090270;28;20055;-62
2023/04/19 08:42:42;;;;;;;3.03;1.40;;;17.30;70.30;;;;;;5091766;28;20109;-62
2023/04/19 08:45:12;;;;;;;3.95;1.40;;;17.40;71.60;;;;;;5077071;28;20047;-62
2023/04/19 08:47:40;;;;;;;3.80;1.50;;;17.90;72.50;;;;;;5078240;28;20079;-62
2023/04/19 08:50:09;;;;;;;3.38;1.88;;;18.50;70.90;;;;;;5095469;28;20055;-63
2023/04/19 08:52:37;;;;;;;2.88;1.20;;;18.60;70.70;;;;;;5078146;28;20044;-62
2023/04/19 08:55:05;;;;;;;3.75;1.70;;;18.70;72.80;;;;;;5077867;28;20048;-62
2023/04/19 08:57:32;;;;;;;4.35;1.60;;;18.80;73.90;;;;;;5095413;28;20389;-63
2023/04/19 09:00:00;;;;;;;3.75;1.58;;;19.70;73.40;;;;;;5078060;28;20059;-63
2023/04/19 09:02:27;;;;;;;5.88;1.85;;;19.40;70.10;;;;;;5095297;28;20094;-62
2023/04/19 09:04:54;;;;;;;3.88;1.52;;;19.40;70.10;;;;;;5095125;28;20039;-63
2023/04/19 09:07:27;;;;;;;3.22;1.67;;;18.70;68.30;;;;;;5095614;28;20105;-61
2023/04/19 09:10:10;;;;;;;2.22;1.42;;;19.00;69.70;;;;;;5095821;28;20048;-62
2023/04/19 09:12:38;;;;;;;3.67;1.55;;;19.20;69.30;;;;;;5090833;28;20105;-63
2023/04/19 09:15:08;;;;;;;4.95;1.45;;;19.00;70.40;;;;;;5077156;28;20498;-62
2023/04/19 09:17:35;;;;;;;3.42;1.73;;;19.00;68.80;;;;;;5077692;28;20113;-61
2023/04/19 09:20:03;;;;;;;5.40;1.50;;;18.50;69.60;;;;;;5094814;28;20048;-62
2023/04/19 09:22:32;;;;;;;4.75;1.58;;;18.70;69.80;;;;;;5095452;28;20112;-62
2023/04/19 09:24:59;;;;;;;3.03;1.50;;;18.90;70.50;;;;;;5077174;28;20152;-62
2023/04/19 09:27:29;;;;;;;8.88;1.92;;;19.30;69.00;;;;;;5074878;28;20123;-61
2023/04/19 09:29:57;;;;;;;15.25;1.85;;;19.80;70.40;;;;;;5095204;28;20052;-62
2023/04/19 09:32:25;;;;;;;3.22;1.35;;;19.20;69.50;;;;;;5094884;28;20086;-62
2023/04/19 09:34:53;;;;;;;3.63;1.70;;;18.90;68.60;;;;;;5077195;28;20048;-62
2023/04/19 09:37:21;;;;;;;5.13;1.50;;;18.80;69.60;;;;;;5095121;28;20040;-63
2023/04/19 09:39:50;;;;;;;2.90;1.35;;;19.50;70.00;;;;;;5092724;28;20463;-62
2023/04/19 09:42:18;;;;;;;2.35;1.38;;;19.60;69.00;;;;;;5094742;28;20052;-62
2023/04/19 09:44:58;;;;;;;5.65;1.42;;;19.40;67.90;;;;;;5077255;28;20070;-63
2023/04/19 09:47:28;;;;;;;2.92;1.33;;;19.50;67.40;;;;;;5094519;28;20495;-62
2023/04/19 09:50:05;;;;;;;;;;;19.70;66.60;;;;;;5077412;28;20075;-62
2023/04/19 09:52:32;;;;;;;3.22;1.42;;;19.50;66.90;;;;;;5076793;28;20045;-62
2023/04/19 09:55:02;;;;;;;2.30;1.30;;;19.90;68.30;;;;;;5093411;28;20134;-62
2023/04/19 09:57:29;;;;;;;;;;;19.80;64.60;;;;;;5095241;28;20115;-62
2023/04/19 09:59:58;;;;;;;3.60;1.58;;;19.50;64.50;;;;;;5094970;28;19924;-62
2023/04/19 10:02:27;;;;;;;2.85;1.30;;;20.10;66.40;;;;;;5091655;28;20113;-63
2023/04/19 10:04:56;;;;;;;6.28;1.30;;;20.10;66.00;;;;;;5094404;28;20061;-62
2023/04/19 10:07:23;;;;;;;2.75;1.13;;;19.90;64.80;;;;;;5093907;28;20127;-62
2023/04/19 10:09:51;;;;;;;1.90;1.05;;;19.50;65.30;;;;;;5092290;28;20558;-62
2023/04/19 10:12:22;;;;;;;2.97;1.20;;;19.20;65.10;;;;;;5076551;28;20176;-62
2023/04/19 10:14:50;;;;;;;3.92;1.20;;;19.30;64.90;;;;;;5075901;28;20441;-62
2023/04/19 10:17:16;;;;;;;2.78;1.38;;;19.50;66.30;;;;;;5076573;28;20044;-62
2023/04/19 10:19:45;;;;;;;2.92;1.33;;;19.40;64.80;;;;;;5094062;28;20549;-62
2023/04/19 10:22:13;;;;;;;3.25;1.30;;;19.60;64.90;;;;;;5093692;28;20078;-63
2023/04/19 10:24:40;;;;;;;3.00;0.90;;;19.80;66.00;;;;;;5076149;28;20058;-62
2023/04/19 10:27:11;;;;;;;3.50;1.13;;;19.80;66.30;;;;;;5094396;28;20094;-62
2023/04/19 10:30:02;;;;;;;2.83;1.13;;;19.80;64.50;;;;;;5075808;28;20101;-62
2023/04/19 10:32:36;;;;;;;5.30;1.33;;;20.00;64.60;;;;;;5074671;28;20070;-62
2023/04/19 10:35:08;;;;;;;2.17;1.15;;;20.10;65.20;;;;;;5074419;28;20093;-63
2023/04/19 10:37:38;;;;;;;4.28;1.00;;;20.20;64.50;;;;;;5091163;28;20051;-63
2023/04/19 10:40:07;;;;;;;2.22;1.00;;;19.90;65.20;;;;;;5094015;28;20058;-63
2023/04/19 10:43:11;;;;;;;2.47;1.10;;;19.70;64.70;;;;;;5093231;28;20083;-62
2023/04/19 10:45:39;;;;;;;4.05;1.00;;;19.60;64.70;;;;;;5091539;28;20067;-63
2023/04/19 10:48:06;;;;;;;2.17;1.02;;;19.80;66.00;;;;;;5093789;28;20047;-62
2023/04/19 10:50:57;;;;;;;4.93;1.48;;;20.40;66.70;;;;;;5093334;28;20051;-63
2023/04/19 10:53:44;;;;;;;1.77;0.77;;;20.30;64.20;;;;;;5091533;28;20052;-63
2023/04/19 10:56:11;;;;;;;3.35;1.20;;;20.30;65.20;;;;;;5093347;28;20524;-63
2023/04/19 10:59:11;;;;;;;3.58;1.17;;;20.40;65.50;;;;;;5093064;28;20450;-62
2023/04/19 11:01:42;;;;;;;3.15;1.05;;;21.00;64.90;;;;;;5075118;28;20056;-62
2023/04/19 11:04:11;;;;;;;6.00;1.13;;;20.40;64.20;;;;;;5092750;28;20487;-63
2023/04/19 11:06:56;;;;;;;3.53;1.13;;;20.30;64.20;;;;;;5091502;28;20119;-61
2023/04/19 11:09:23;;;;;;;1.85;0.90;;;20.30;65.30;;;;;;5092864;28;20091;-63
2023/04/19 11:11:52;;;;;;;4.07;1.23;;;20.40;65.50;;;;;;5092801;28;20109;-62
2023/04/19 11:14:21;;;;;;;3.55;1.20;;;20.00;65.00;;;;;;5074887;28;20499;-62
2023/04/19 11:16:49;;;;;;;4.47;1.08;;;20.00;62.50;;;;;;5093246;28;20511;-63
2023/04/19 11:19:16;;;;;;;2.60;1.15;;;20.40;64.60;;;;;;5074483;28;20048;-62
2023/04/19 11:21:44;;;;;;;1.80;1.08;;;20.70;64.70;;;;;;5093271;28;20059;-63
2023/04/19 11:24:14;;;;;;;3.70;1.10;;;21.00;64.70;;;;;;5074751;28;20040;-63
2023/04/19 11:26:42;;;;;;;3.35;1.27;;;20.70;65.10;;;;;;5092888;28;20381;-63
2023/04/19 11:29:10;;;;;;;2.47;1.20;;;20.40;64.80;;;;;;5093102;28;20136;-63
2023/04/19 11:31:37;;;;;;;5.55;1.23;;;20.20;63.70;;;;;;5093052;28;20109;-63
2023/04/19 11:34:05;;;;;;;2.03;1.27;;;19.80;65.30;;;;;;5092605;28;20075;-63
2023/04/19 11:36:35;;;;;;;4.63;1.40;;;19.30;64.70;;;;;;5092952;28;20052;-63
2023/04/19 11:39:04;;;;;;;4.43;1.33;;;19.60;65.30;;;;;;5074335;28;20048;-64
2023/04/19 11:41:38;;;;;;;4.45;1.33;;;19.90;64.60;;;;;;5075017;28;20047;-63
2023/04/19 11:44:12;;;;;;;1.80;1.13;;;19.90;65.70;;;;;;5092500;28;20048;-63
2023/04/19 11:46:39;;;;;;;2.75;1.23;;;20.40;66.30;;;;;;5074141;28;20055;-63
2023/04/19 11:49:07;;;;;;;1.98;1.30;;;20.80;65.40;;;;;;5092771;28;20044;-62
2023/04/19 11:51:34;;;;;;;4.00;1.60;;;20.50;64.30;;;;;;5072697;28;20040;-63
2023/04/19 11:54:01;;;;;;;4.57;1.42;;;20.60;66.80;;;;;;5073615;28;20056;-62
2023/04/19 11:56:28;;;;;;;2.35;1.38;;;20.80;66.40;;;;;;5075139;28;20051;-63
2023/04/19 11:58:57;;;;;;;5.47;1.35;;;20.80;67.00;;;;;;5092665;28;20052;-62
2023/04/19 12:01:24;;;;;;;3.70;1.70;;;20.50;63.60;;;;;;5074280;28;20097;-62
2023/04/19 12:03:53;;;;;;;3.13;1.63;;;20.60;65.40;;;;;;5072058;28;20407;-62
2023/04/19 12:06:24;;;;;;;4.28;1.77;;;20.00;66.60;;;;;;5092322;28;20556;-62
2023/04/19 12:08:53;;;;;;;7.13;1.90;;;20.30;68.10;;;;;;5092047;28;20070;-62
2023/04/19 12:11:23;;;;;;;4.85;1.60;;;20.20;67.10;;;;;;5074432;28;20052;-63
2023/04/19 12:14:07;;;;;;;;;;;20.40;67.60;;;;;;5074655;28;20455;-62
2023/04/19 12:16:34;;;;;;;4.35;1.83;;;20.60;66.00;;;;;;5092524;28;20349;-63
2023/04/19 12:19:12;;;;;;;5.05;2.00;;;20.50;68.50;;;;;;5091889;28;20047;-64
2023/04/19 12:21:41;;;;;;;3.88;2.00;;;20.50;67.30;;;;;;5090278;28;20052;-62
2023/04/19 12:24:08;;;;;;;3.45;1.90;;;20.70;67.70;;;;;;5091875;28;20093;-62
2023/04/19 12:26:36;;;;;;;3.58;1.92;;;20.50;67.00;;;;;;5074234;28;20056;-63
2023/04/19 12:29:03;;;;;;;3.75;1.98;;;20.40;66.90;;;;;;5091579;28;20051;-63
2023/04/19 12:31:32;;;;;;;3.83;2.25;;;20.10;66.90;;;;;;5074456;28;20044;-63
2023/04/19 12:33:59;;;;;;;4.43;2.15;;;19.70;68.80;;;;;;5090381;28;20051;-62
2023/04/19 12:36:26;;;;;;;6.07;2.30;;;19.90;68.70;;;;;;5091569;28;20165;-62
2023/04/19 12:38:55;;;;;;;4.05;2.60;;;20.00;69.80;;;;;;5074196;28;20549;-63
2023/04/19 12:41:21;;;;;;;5.32;2.33;;;19.40;70.10;;;;;;5074272;28;20113;-62
2023/04/19 12:43:48;;;;;;;5.60;2.70;;;19.90;70.50;;;;;;5091571;28;20044;-62
2023/04/19 12:46:15;;;;;;;8.68;2.95;;;20.30;71.40;;;;;;5089762;28;20053;-62
2023/04/19 12:48:42;;;;;;;7.93;3.10;;;20.20;72.60;;;;;;5074267;28;20055;-62
2023/04/19 12:51:09;;;;;;;6.28;2.92;;;19.90;73.00;;;;;;5089407;28;20048;-62
2023/04/19 12:53:36;;;;;;;5.20;2.78;;;19.70;72.20;;;;;;5092037;28;20040;-62
2023/04/19 12:56:04;;;;;;;4.47;3.00;;;20.30;72.20;;;;;;5073377;28;20048;-63